CheckWX is a tool to help pilots better visualize weather data.  It is not intended as a substitute for an official pre-flight weather briefing.

12:22:51 UTC

EHGR METAR
Gilze Rijen Air Base Airport
Breda, The Netherlands
Current

28 mins ago

EHGR 271155Z AUTO 02009KT 300V080 9999 NCD 22/12 Q1028 BLU
Observed
Jun-27 @ 11:55 UTC
Wind
  • 020° at 9 KTS
Visibility
10,000+ meters
Flight Rules
VFR
Cloud Levels
  • Clear skies
Temperature
22°C / 72°F
Dewpoint
12°C / 54°F
Humidity
53%
Altimeter
30.35" Hg
Pressure
1027.92 hPa
Previous

58 mins ago

EHGR 271125Z AUTO 36010KT 340V100 9999 NCD 22/12 Q1029 BLU
Observed
Jun-27 @ 11:25 UTC
Wind
  • 360° at 10 KTS
Visibility
10,000+ meters
Flight Rules
VFR
Cloud Levels
  • Clear skies
Temperature
22°C / 72°F
Dewpoint
12°C / 54°F
Humidity
53%
Altimeter
30.38" Hg
Pressure
1028.92 hPa
Previous

1 hour ago

EHGR 271055Z AUTO 01008KT 310V070 9999 NCD 21/11 Q1029 BLU
Observed
Jun-27 @ 10:55 UTC
Wind
  • 010° at 8 KTS
Visibility
10,000+ meters
Flight Rules
VFR
Cloud Levels
  • Clear skies
Temperature
21°C / 70°F
Dewpoint
11°C / 52°F
Humidity
53%
Altimeter
30.38" Hg
Pressure
1028.92 hPa